General Aviation Weather

Text Reports

Enter one or more of the following location identifiers separated by a space:

Zip Code, Four-Character ICAO or Three-Character IATA airport codes.

METAR - Aviation Routine Weather Report
KOZW - Howell, Michigan
Updated at 10:35 AM GMT on February 11, 2016 (5:35 AM EST):
METAR KOZW 111035Z AUTO 30005KT 10SM BKN047 M14/M16 A3007 RMK AO2 T11361157
TAF - Terminal Area Forecast
KOZW - Howell, Michigan
Updated at 10:35 AM GMT on February 11, 2016 (5:35 AM EST):
No TAF is currently available for this location.
Decoded:
No decoded TAF is available.
PIREP - Pilot Weather Report
KOZW - Howell, Michigan
Updated at 10:35 AM GMT on February 11, 2016 (5:35 AM EST):
No PIREP is currently available for this location.
AIRMET - Airmens Meteorological Information
KOZW - Howell, Michigan
Updated at 10:35 AM GMT on February 11, 2016 (5:35 AM EST):
No AIRMET is currently available for this location.
SIGMET - Significant Meteorological Information
KOZW - Howell, Michigan
Updated at 10:35 AM GMT on February 11, 2016 (5:35 AM EST):
No SIGMET is currently available for this location.
NOTAM - Notice to Airmen
KOZW - Howell, Michigan
Updated at 10:35 AM GMT on February 11, 2016 (5:35 AM EST):
No NOTAM is currently available for this location.
Forecast Area
KOZW - Howell, Michigan
Updated at 10:35 AM GMT on February 11, 2016 (5:35 AM EST):
No NOTAM is currently available for this location.
Aviation Weather Maps